createdAt,value
2018-04-28T00:00:10.645Z,69.62
2018-04-28T00:01:10.654Z,69.34
2018-04-28T00:02:10.662Z,69.05
2018-04-28T00:03:10.679Z,69.34
2018-04-28T00:04:10.687Z,70.52
2018-04-28T00:05:11.468Z,70.42
2018-04-28T00:06:10.709Z,69.82
2018-04-28T00:07:10.720Z,70.39
2018-04-28T00:08:10.732Z,70.67
2018-04-28T00:09:10.743Z,70.96
2018-04-28T00:10:10.754Z,71.63
2018-04-28T00:11:10.776Z,71.72
2018-04-28T00:12:10.780Z,70.87
2018-04-28T00:14:42.977Z,70.96
2018-04-28T00:15:43.022Z,71.15
2018-04-28T00:17:47.450Z,70.77
2018-04-28T00:18:47.545Z,70.48
2018-04-28T00:19:47.534Z,70.29
2018-04-28T00:20:47.487Z,70.87
2018-04-28T00:21:47.505Z,70.71
2018-04-28T00:22:47.508Z,70.87
2018-04-28T00:23:47.524Z,70.81
2018-04-28T00:24:47.540Z,70.71
2018-04-28T00:25:47.544Z,70.33
2018-04-28T00:26:47.552Z,69.56
2018-04-28T00:27:47.555Z,69.66
2018-04-28T00:28:47.586Z,69.56
2018-04-28T00:29:47.582Z,70.90
2018-04-28T00:30:47.602Z,70.71
2018-04-28T00:31:47.599Z,70.87
2018-04-28T00:32:47.610Z,69.24
2018-04-28T00:33:47.630Z,69.91
2018-04-28T00:34:47.638Z,70.48
2018-04-28T00:35:47.648Z,70.58
2018-04-28T00:36:47.663Z,70.67
2018-04-28T00:37:47.670Z,70.77
2018-04-28T00:38:47.682Z,70.87
2018-04-28T00:39:47.693Z,70.48
2018-04-28T00:40:47.707Z,71.72
2018-04-28T00:41:47.721Z,70.96
2018-04-28T00:42:47.724Z,71.25
2018-04-28T00:43:47.789Z,70.67
2018-04-28T00:44:47.748Z,71.34
2018-04-28T00:45:47.773Z,71.63
2018-04-28T00:46:47.773Z,70.67
2018-04-28T00:47:47.778Z,71.34
2018-04-28T00:48:47.795Z,71.63
2018-04-28T00:49:47.799Z,72.11
2018-04-28T00:50:47.865Z,72.01
2018-04-28T00:51:47.833Z,71.44
2018-04-28T00:52:47.834Z,72.30
2018-04-28T00:53:47.850Z,72.20
2018-04-28T00:54:47.859Z,72.20
2018-04-28T00:55:47.870Z,72.11
2018-04-28T00:56:47.885Z,72.68
2018-04-28T00:57:47.932Z,72.01
2018-04-28T00:58:47.900Z,72.49
2018-04-28T00:59:47.913Z,73.16
2018-04-28T01:00:47.932Z,73.54
2018-04-28T01:01:47.939Z,73.07
2018-04-28T01:02:47.947Z,72.97
2018-04-28T01:03:47.954Z,72.78
2018-04-28T01:04:48.016Z,72.01
2018-04-28T01:05:47.982Z,72.58
2018-04-28T01:06:47.989Z,72.20
2018-04-28T01:07:48.005Z,72.49
2018-04-28T01:08:48.019Z,72.68
2018-04-28T01:09:48.023Z,72.11
2018-04-28T01:10:48.031Z,72.55
2018-04-28T01:11:48.056Z,73.25
2018-04-28T01:12:48.058Z,73.22
2018-04-28T01:13:48.073Z,73.44
2018-04-28T01:14:48.084Z,74.21
2018-04-28T01:15:48.092Z,73.73
2018-04-28T01:16:48.107Z,73.07
2018-04-28T01:17:48.119Z,73.16
2018-04-28T01:18:48.124Z,73.92
2018-04-28T01:19:48.130Z,74.59
2018-04-28T01:20:48.162Z,74.49
2018-04-28T01:21:48.165Z,74.49
2018-04-28T01:22:48.167Z,74.30
2018-04-28T01:23:48.187Z,73.83
2018-04-28T01:24:48.188Z,73.25
2018-04-28T01:25:48.208Z,73.07
2018-04-28T01:26:48.214Z,74.02
2018-04-28T01:27:48.225Z,73.92
2018-04-28T01:28:48.239Z,73.25
2018-04-28T01:29:48.521Z,73.54
2018-04-28T01:30:48.254Z,73.07
2018-04-28T01:31:48.266Z,72.97
2018-04-28T01:32:48.308Z,72.49
2018-04-28T01:33:48.301Z,72.39
2018-04-28T01:34:48.896Z,72.49
2018-04-28T01:35:48.310Z,72.68
2018-04-28T01:36:48.320Z,71.92
2018-04-28T01:37:48.345Z,72.01
2018-04-28T01:38:48.342Z,73.39
2018-04-28T01:39:48.365Z,72.20
2018-04-28T01:40:48.367Z,71.44
2018-04-28T01:41:48.884Z,71.06
2018-04-28T01:42:48.389Z,70.96
2018-04-28T01:43:48.396Z,70.96
2018-04-28T01:44:48.419Z,71.25
2018-04-28T01:45:48.431Z,71.72
2018-04-28T01:46:48.431Z,72.01
2018-04-28T01:47:48.453Z,71.63
2018-04-28T01:48:48.454Z,72.11
2018-04-28T01:49:48.465Z,73.07
2018-04-28T01:50:48.482Z,73.48
2018-04-28T01:51:48.499Z,73.25
2018-04-28T01:52:48.505Z,72.81
2018-04-28T01:53:48.509Z,73.19
2018-04-28T01:54:48.578Z,73.07
2018-04-28T01:55:48.531Z,72.87
2018-04-28T01:56:48.559Z,72.01
2018-04-28T01:57:48.554Z,72.39
2018-04-28T01:58:50.008Z,71.92
2018-04-28T01:59:48.575Z,72.20
2018-04-28T02:00:48.597Z,73.54
2018-04-28T02:01:48.600Z,73.25
2018-04-28T02:02:48.615Z,74.11
2018-04-28T02:03:48.622Z,73.54
2018-04-28T02:04:48.636Z,74.02
2018-04-28T02:05:48.644Z,74.37
2018-04-28T02:06:48.660Z,74.74
2018-04-28T02:07:48.663Z,75.16
2018-04-28T02:08:48.678Z,75.42
2018-04-28T02:09:48.686Z,75.42
2018-04-28T02:10:48.698Z,75.89
2018-04-28T02:11:48.714Z,74.84
2018-04-28T02:12:48.721Z,75.03
2018-04-28T02:13:48.743Z,74.55
2018-04-28T02:14:48.742Z,74.55
2018-04-28T02:15:48.754Z,74.11
2018-04-28T02:16:48.765Z,74.78
2018-04-28T02:17:48.783Z,74.69
2018-04-28T02:18:48.784Z,75.07
2018-04-28T02:19:48.798Z,74.78
2018-04-28T02:20:48.812Z,75.07
2018-04-28T02:21:48.817Z,75.07
2018-04-28T02:22:48.830Z,74.59
2018-04-28T02:23:48.840Z,75.16
2018-04-28T02:24:48.859Z,75.35
2018-04-28T02:25:48.865Z,75.16
2018-04-28T02:26:48.872Z,74.88
2018-04-28T02:27:48.888Z,75.54
2018-04-28T02:28:48.901Z,75.07
2018-04-28T02:29:48.911Z,74.98
2018-04-28T02:30:48.918Z,75.32
2018-04-28T02:31:48.933Z,75.74
2018-04-28T02:32:48.936Z,75.93
2018-04-28T02:33:48.951Z,77.13
2018-04-28T02:34:48.961Z,76.75
2018-04-28T02:35:48.971Z,77.70
2018-04-28T02:36:48.982Z,77.61
2018-04-28T02:37:49.002Z,77.03
2018-04-28T02:38:49.013Z,75.42
2018-04-28T02:39:49.018Z,76.84
2018-04-28T02:40:49.025Z,76.37
2018-04-28T02:41:49.035Z,77.03
2018-04-28T02:42:49.047Z,76.75
2018-04-28T02:43:49.068Z,76.84
2018-04-28T02:44:49.071Z,76.75
2018-04-28T02:45:49.088Z,76.56
2018-04-28T02:46:49.090Z,77.32
2018-04-28T02:47:49.107Z,76.75
2018-04-28T02:48:49.121Z,76.75
2018-04-28T02:49:49.123Z,77.51
2018-04-28T02:50:49.138Z,77.51
2018-04-28T02:51:49.147Z,77.23
2018-04-28T02:52:49.159Z,76.84
2018-04-28T02:53:49.168Z,77.61
2018-04-28T02:54:49.178Z,77.99
2018-04-28T02:55:49.188Z,77.80
2018-04-28T02:56:49.200Z,77.99
2018-04-28T02:57:49.236Z,77.80
2018-04-28T02:58:49.223Z,77.51
2018-04-28T02:59:49.230Z,77.42
2018-04-28T03:00:49.242Z,76.75
2018-04-28T03:01:49.291Z,76.65
2018-04-28T03:02:49.263Z,77.51
2018-04-28T03:03:49.288Z,77.70
2018-04-28T03:04:49.288Z,77.80
2018-04-28T03:05:49.298Z,77.99
2018-04-28T03:06:49.308Z,78.28
2018-04-28T03:07:49.315Z,77.99
2018-04-28T03:08:49.337Z,77.80
2018-04-28T03:09:49.352Z,77.99
2018-04-28T03:10:49.352Z,77.32
2018-04-28T03:11:49.364Z,77.51
2018-04-28T03:12:49.373Z,77.99
2018-04-28T03:13:49.388Z,77.61
2018-04-28T03:14:49.396Z,77.70
2018-04-28T03:15:49.405Z,77.70
2018-04-28T03:16:49.441Z,77.70
2018-04-28T03:17:49.427Z,77.51
2018-04-28T03:18:49.436Z,77.61
2018-04-28T03:19:49.448Z,77.70
2018-04-28T03:20:49.458Z,77.99
2018-04-28T03:21:49.470Z,78.09
2018-04-28T03:22:49.481Z,77.99
2018-04-28T03:23:49.488Z,79.04
2018-04-28T03:24:49.507Z,78.75
2018-04-28T03:25:49.517Z,79.14
2018-04-28T03:26:49.523Z,78.85
2018-04-28T03:27:49.531Z,79.23
2018-04-28T03:28:49.543Z,78.09
2018-04-28T03:29:49.558Z,77.13
2018-04-28T03:30:49.580Z,78.28
2018-04-28T03:31:49.576Z,78.75
2018-04-28T03:32:49.587Z,79.33
2018-04-28T03:33:49.601Z,79.43
2018-04-28T03:34:49.609Z,78.94
2018-04-28T03:35:49.631Z,79.33
2018-04-28T03:36:49.648Z,79.23
2018-04-28T03:37:49.643Z,79.33
2018-04-28T03:38:49.657Z,79.33
2018-04-28T03:39:49.664Z,79.14
2018-04-28T03:40:49.675Z,79.23
2018-04-28T03:41:49.682Z,79.33
2018-04-28T03:42:49.694Z,79.43
2018-04-28T03:43:49.716Z,79.10
2018-04-28T03:44:49.716Z,79.61
2018-04-28T03:45:49.731Z,79.86
2018-04-28T03:46:49.738Z,79.57
2018-04-28T03:47:49.749Z,79.19
2018-04-28T03:48:49.758Z,79.57
2018-04-28T03:49:49.767Z,79.80
2018-04-28T03:50:49.797Z,79.86
2018-04-28T03:51:49.792Z,79.10
2018-04-28T03:52:49.802Z,79.19
2018-04-28T03:53:49.813Z,78.72
2018-04-28T03:54:49.821Z,79.10
2018-04-28T03:55:49.845Z,78.72
2018-04-28T03:56:49.919Z,78.91
2018-04-28T03:57:49.857Z,78.62
2018-04-28T03:58:49.873Z,79.38
2018-04-28T03:59:49.878Z,79.90
2018-04-28T04:00:49.883Z,79.77
2018-04-28T04:01:49.899Z,80.43
2018-04-28T04:02:49.911Z,80.62
2018-04-28T04:03:49.930Z,80.24
2018-04-28T04:04:49.928Z,79.57
2018-04-28T04:05:49.938Z,79.67
2018-04-28T04:06:49.947Z,79.57
2018-04-28T04:07:49.961Z,80.15
2018-04-28T04:08:50.044Z,80.53
2018-04-28T04:09:49.988Z,80.81
2018-04-28T04:10:49.991Z,80.62
2018-04-28T04:11:50.007Z,80.53
2018-04-28T04:12:50.010Z,79.77
2018-04-28T04:13:50.025Z,79.86
2018-04-28T04:14:50.037Z,80.15
2018-04-28T04:15:50.054Z,80.62
2018-04-28T04:16:50.057Z,80.19
2018-04-28T04:17:50.076Z,79.67
2018-04-28T04:18:50.075Z,79.99
2018-04-28T04:19:50.085Z,79.96
2018-04-28T04:20:50.098Z,79.77
2018-04-28T04:21:50.111Z,79.67
2018-04-28T04:22:50.118Z,80.15
2018-04-28T04:23:50.135Z,80.81
2018-04-28T04:24:50.142Z,80.53
2018-04-28T04:25:50.148Z,80.81
2018-04-28T04:26:50.162Z,80.53
2018-04-28T04:27:50.169Z,80.81
2018-04-28T04:28:50.178Z,80.53
2018-04-28T04:29:50.196Z,80.24
2018-04-28T04:30:50.207Z,80.81
2018-04-28T04:31:50.247Z,80.47
2018-04-28T04:32:50.223Z,81.04
2018-04-28T04:33:50.232Z,80.85
2018-04-28T04:34:50.251Z,81.24
2018-04-28T04:35:50.261Z,81.24
2018-04-28T04:36:50.275Z,81.33
2018-04-28T04:37:50.276Z,81.01
2018-04-28T04:38:50.288Z,80.62
2018-04-28T04:39:50.300Z,81.01
2018-04-28T04:40:50.341Z,81.77
2018-04-28T04:41:50.323Z,81.20
2018-04-28T04:42:50.333Z,81.29
2018-04-28T04:43:50.351Z,80.53
2018-04-28T04:44:50.349Z,81.20
2018-04-28T04:45:50.361Z,81.33
2018-04-28T04:46:50.372Z,81.24
2018-04-28T04:47:50.382Z,81.04
2018-04-28T04:48:50.396Z,81.14
2018-04-28T04:49:50.416Z,81.52
2018-04-28T04:50:50.413Z,80.76
2018-04-28T04:51:50.427Z,80.85
2018-04-28T04:52:50.435Z,81.24
2018-04-28T04:53:50.447Z,81.33
2018-04-28T04:54:50.455Z,81.24
2018-04-28T04:55:50.475Z,81.33
2018-04-28T04:56:50.477Z,81.71
2018-04-28T04:57:50.486Z,81.62
2018-04-28T04:58:50.571Z,82.00
2018-04-28T04:59:50.542Z,81.62
2018-04-28T05:00:50.552Z,81.43
2018-04-28T05:01:50.536Z,81.52
2018-04-28T05:02:50.546Z,80.95
2018-04-28T05:03:50.550Z,81.71
2018-04-28T05:04:50.566Z,82.00
2018-04-28T05:05:50.574Z,81.62
2018-04-28T05:06:50.592Z,81.52
2018-04-28T05:07:50.605Z,82.19
2018-04-28T05:08:50.613Z,82.09
2018-04-28T05:09:50.619Z,81.62
2018-04-28T05:10:50.627Z,81.43
2018-04-28T05:11:50.639Z,81.81
2018-04-28T05:12:50.645Z,82.38
2018-04-28T05:13:50.667Z,82.57
2018-04-28T05:14:50.672Z,82.86
2018-04-28T05:15:50.685Z,82.95
2018-04-28T05:16:50.691Z,83.14
2018-04-28T05:17:50.703Z,83.24
2018-04-28T05:18:50.710Z,82.95
2018-04-28T05:19:50.725Z,83.53
2018-04-28T05:20:50.741Z,83.14
2018-04-28T05:21:50.744Z,82.86
2018-04-28T05:22:50.757Z,82.95
2018-04-28T05:23:50.773Z,83.24
2018-04-28T05:24:50.777Z,83.00
2018-04-28T05:25:50.805Z,82.61
2018-04-28T05:26:50.824Z,83.00
2018-04-28T05:27:50.812Z,82.29
2018-04-28T05:28:50.823Z,81.81
2018-04-28T05:29:50.831Z,81.71
2018-04-28T05:30:50.845Z,81.81
2018-04-28T05:31:50.851Z,82.71
2018-04-28T05:32:50.871Z,81.85
2018-04-28T05:33:50.874Z,81.66
2018-04-28T05:34:50.883Z,81.95
2018-04-28T05:35:50.894Z,81.76
2018-04-28T05:36:50.915Z,81.47
2018-04-28T05:37:50.917Z,81.37
2018-04-28T05:38:50.932Z,80.70
2018-04-28T05:39:50.935Z,80.13
2018-04-28T05:40:50.950Z,80.04
2018-04-28T05:41:50.961Z,80.41
2018-04-28T05:42:50.969Z,79.46
2018-04-28T05:43:50.983Z,79.22
2018-04-28T05:44:51.007Z,80.27
2018-04-28T05:45:51.005Z,81.22
2018-04-28T05:46:51.019Z,81.13
2018-04-28T05:47:51.032Z,80.36
2018-04-28T05:48:51.034Z,80.93
2018-04-28T05:49:51.053Z,78.83
2018-04-28T05:50:51.062Z,78.26
2018-04-28T05:51:51.070Z,79.22
2018-04-28T05:52:51.083Z,79.98
2018-04-28T05:53:51.091Z,79.98
2018-04-28T05:54:51.100Z,80.07
2018-04-28T05:55:51.122Z,79.60
2018-04-28T05:56:51.157Z,79.02
2018-04-28T05:57:51.223Z,78.83
2018-04-28T05:58:51.147Z,78.93
2018-04-28T05:59:51.157Z,79.12
2018-04-28T06:00:51.168Z,78.64
2018-04-28T06:01:51.189Z,78.11
2018-04-28T06:02:51.195Z,79.12
2018-04-28T06:03:51.213Z,79.83
2018-04-28T06:04:51.211Z,80.59
2018-04-28T06:05:51.223Z,80.17
2018-04-28T06:06:51.235Z,80.55
2018-04-28T06:07:51.246Z,80.65
2018-04-28T06:08:51.256Z,78.55
2018-04-28T06:09:51.267Z,77.78
2018-04-28T06:10:51.293Z,76.45
2018-04-28T06:11:51.295Z,77.72
2018-04-28T06:12:51.303Z,77.44
2018-04-28T06:13:51.316Z,77.53
2018-04-28T06:14:51.324Z,77.63
2018-04-28T06:15:51.336Z,77.82
2018-04-28T06:16:51.359Z,77.92
2018-04-28T06:17:51.363Z,77.63
2018-04-28T06:18:51.372Z,78.30
2018-04-28T06:19:51.402Z,79.00
2018-04-28T06:20:51.397Z,79.96
2018-04-28T06:21:51.410Z,80.44
2018-04-28T06:22:51.415Z,80.88
2018-04-28T06:23:51.432Z,80.69
2018-04-28T06:24:51.438Z,81.16
2018-04-28T06:25:51.477Z,80.11
2018-04-28T06:26:51.461Z,80.98
2018-04-28T06:27:51.475Z,80.55
2018-04-28T06:28:51.484Z,79.60
2018-04-28T06:29:51.499Z,80.40
2018-04-28T06:30:51.511Z,80.11
2018-04-28T06:31:51.526Z,80.40
2018-04-28T06:32:51.530Z,80.11
2018-04-28T06:33:51.541Z,80.73
2018-04-28T06:34:51.559Z,82.64
2018-04-28T06:35:51.648Z,81.97
2018-04-28T06:36:51.586Z,81.11
2018-04-28T06:37:51.590Z,80.48
2018-04-28T06:38:51.601Z,79.33
2018-04-28T06:39:51.616Z,78.09
2018-04-28T06:40:51.624Z,76.46
2018-04-28T06:41:51.642Z,75.41
2018-04-28T06:42:51.651Z,74.87
2018-04-28T06:43:51.659Z,76.21
2018-04-28T06:44:51.671Z,76.02
2018-04-28T06:45:51.689Z,74.49
2018-04-28T06:46:51.710Z,74.97
2018-04-28T06:47:51.740Z,73.63
2018-04-28T06:48:51.721Z,72.42
2018-04-28T06:49:51.730Z,71.84
2018-04-28T06:50:51.744Z,71.94
2018-04-28T06:51:51.760Z,70.98
2018-04-28T06:52:51.767Z,69.07
2018-04-28T06:53:51.786Z,67.44
2018-04-28T06:54:51.791Z,67.72
2018-04-28T06:55:51.812Z,69.74
2018-04-28T06:56:51.838Z,70.60
2018-04-28T06:57:51.841Z,68.87
2018-04-28T06:58:51.843Z,70.54
2018-04-28T06:59:51.900Z,70.83
2018-04-28T07:00:51.868Z,71.21
2018-04-28T07:01:51.878Z,72.07
2018-04-28T07:02:51.895Z,73.70
2018-04-28T07:03:51.916Z,74.37
2018-04-28T07:04:51.916Z,73.32
2018-04-28T07:05:51.931Z,73.90
2018-04-28T07:06:51.939Z,74.37
2018-04-28T07:07:51.953Z,74.27
2018-04-28T07:08:51.967Z,75.62
2018-04-28T07:09:51.997Z,74.89
2018-04-28T07:10:52.015Z,73.80
2018-04-28T07:11:52.006Z,73.74
2018-04-28T07:12:52.029Z,73.35
2018-04-28T07:13:52.031Z,74.98
2018-04-28T07:14:52.043Z,73.93
2018-04-28T07:15:52.068Z,75.18
2018-04-28T07:16:52.074Z,75.18
2018-04-28T07:17:52.091Z,75.08
2018-04-28T07:18:52.095Z,73.55
2018-04-28T07:19:52.126Z,71.92
2018-04-28T07:20:52.123Z,71.44
2018-04-28T07:21:52.138Z,70.38
2018-04-28T07:22:52.149Z,71.19
2018-04-28T07:23:52.168Z,71.28
2018-04-28T07:24:52.177Z,70.67
2018-04-28T07:25:52.187Z,68.40
2018-04-28T07:26:52.195Z,66.10
2018-04-28T07:27:52.209Z,65.91
2018-04-28T07:28:52.222Z,63.12
2018-04-28T07:29:52.238Z,62.65
2018-04-28T07:30:52.254Z,62.55
2018-04-28T07:31:52.263Z,62.45
2018-04-28T07:32:52.279Z,64.76
2018-04-28T07:33:52.291Z,63.89
2018-04-28T07:34:52.304Z,65.52
2018-04-28T07:35:52.313Z,64.28
2018-04-28T07:36:52.340Z,63.70
2018-04-28T07:37:52.347Z,62.07
2018-04-28T07:38:52.354Z,61.98
2018-04-28T07:39:52.368Z,61.11
2018-04-28T07:40:52.380Z,62.07
2018-04-28T07:41:52.393Z,62.55
2018-04-28T07:42:52.403Z,63.03
2018-04-28T07:43:52.421Z,60.44
2018-04-28T07:44:52.435Z,60.63
2018-04-28T07:45:52.445Z,57.37
2018-04-28T07:46:52.468Z,58.42
2018-04-28T07:47:52.471Z,57.28
2018-04-28T07:48:52.484Z,56.98
2018-04-28T07:49:52.497Z,56.22
2018-04-28T07:50:52.509Z,58.33
2018-04-28T07:51:52.523Z,59.09
2018-04-28T07:52:52.542Z,59.70
2018-04-28T07:53:52.550Z,58.07
2018-04-28T07:54:52.561Z,57.01
2018-04-28T07:55:52.579Z,58.07
2018-04-28T07:56:52.585Z,57.97
2018-04-28T07:57:52.600Z,56.98
2018-04-28T07:58:52.611Z,57.50
2018-04-28T07:59:52.678Z,59.22
2018-04-28T08:00:52.640Z,57.40
2018-04-28T08:01:52.651Z,56.15
2018-04-28T08:02:52.670Z,57.11
2018-04-28T08:03:52.692Z,57.40
2018-04-28T08:04:52.689Z,56.82
2018-04-28T08:05:52.711Z,54.23
2018-04-28T08:06:52.716Z,54.90
2018-04-28T08:07:52.741Z,58.74
2018-04-28T08:08:52.742Z,58.55
2018-04-28T08:09:52.755Z,58.26
2018-04-28T08:10:52.769Z,58.26
2018-04-28T08:11:52.779Z,57.11
2018-04-28T08:12:52.793Z,57.11
2018-04-28T08:13:52.808Z,55.29
2018-04-28T08:14:52.828Z,55.19
2018-04-28T08:15:52.833Z,56.34
2018-04-28T08:16:52.845Z,56.82
2018-04-28T08:17:52.858Z,55.47
2018-04-28T08:18:52.869Z,55.19
2018-04-28T08:19:52.895Z,55.32
2018-04-28T08:20:52.901Z,56.27
2018-04-28T08:21:52.911Z,55.69
2018-04-28T08:22:52.925Z,54.93
2018-04-28T08:23:52.933Z,56.18
2018-04-28T08:24:52.951Z,55.22
2018-04-28T08:25:52.960Z,56.27
2018-04-28T08:26:52.971Z,57.43
2018-04-28T08:27:52.995Z,54.64
2018-04-28T08:28:52.999Z,54.25
2018-04-28T08:29:53.030Z,55.69
2018-04-28T08:30:53.024Z,56.37
2018-04-28T08:31:53.039Z,56.27
2018-04-28T08:32:53.050Z,57.55
2018-04-28T08:33:55.033Z,56.88
2018-04-28T08:34:53.111Z,57.45
2018-04-28T08:35:53.092Z,55.60
2018-04-28T08:36:53.126Z,55.24
2018-04-28T08:37:53.120Z,55.91
2018-04-28T08:38:53.131Z,53.70
2018-04-28T08:39:53.143Z,52.26
2018-04-28T08:40:53.186Z,51.95
2018-04-28T08:41:53.175Z,52.24
2018-04-28T08:42:53.187Z,52.65
2018-04-28T08:43:53.197Z,52.62
2018-04-28T08:44:53.210Z,52.84
2018-04-28T08:45:53.223Z,54.19
2018-04-28T08:46:53.235Z,56.21
2018-04-28T08:47:53.248Z,54.77
2018-04-28T08:48:53.265Z,53.90
2018-04-28T08:49:53.280Z,53.03
2018-04-28T08:50:53.290Z,52.08
2018-04-28T08:51:53.301Z,52.75
2018-04-28T08:52:53.334Z,52.36
2018-04-28T08:53:53.330Z,52.65
2018-04-28T08:54:53.386Z,52.26
2018-04-28T08:55:53.356Z,51.98
2018-04-28T08:56:53.372Z,52.84
2018-04-28T08:57:53.382Z,54.19
2018-04-28T08:58:53.397Z,54.02
2018-04-28T08:59:53.407Z,53.25
2018-04-28T09:00:53.421Z,52.77
2018-04-28T09:01:53.438Z,52.97
2018-04-28T09:02:53.449Z,54.41
2018-04-28T09:03:53.461Z,53.92
2018-04-28T09:04:53.475Z,53.35
2018-04-28T09:05:53.495Z,52.68
2018-04-28T09:06:53.503Z,54.41
2018-04-28T09:07:53.518Z,52.00
2018-04-28T09:08:53.536Z,52.10
2018-04-28T09:09:53.560Z,54.22
2018-04-28T09:10:53.555Z,54.99
2018-04-28T09:11:53.569Z,54.31
2018-04-28T09:12:53.588Z,54.22
2018-04-28T09:13:53.596Z,52.70
2018-04-28T09:14:53.609Z,51.72
2018-04-28T09:15:53.636Z,52.99
2018-04-28T09:16:53.643Z,52.32
2018-04-28T09:17:53.652Z,51.17
2018-04-28T09:18:53.719Z,52.22
2018-04-28T09:19:53.677Z,50.85
2018-04-28T09:20:53.691Z,50.56
2018-04-28T09:21:53.721Z,51.17
2018-04-28T09:22:53.718Z,52.03
2018-04-28T09:23:53.737Z,51.45
2018-04-28T09:24:53.746Z,51.35
2018-04-28T09:25:53.767Z,52.51
2018-04-28T09:26:53.773Z,51.55
2018-04-28T09:27:53.800Z,52.32
2018-04-28T09:28:53.815Z,50.81
2018-04-28T09:29:53.817Z,50.71
2018-04-28T09:30:53.845Z,49.46
2018-04-28T09:31:53.840Z,49.65
2018-04-28T09:32:53.883Z,48.79
2018-04-28T09:33:53.900Z,50.13
2018-04-28T09:34:53.883Z,51.48
2018-04-28T09:35:53.898Z,53.02
2018-04-28T09:36:53.922Z,53.02
2018-04-28T09:37:53.926Z,51.48
2018-04-28T09:38:53.954Z,51.29
2018-04-28T09:39:53.965Z,52.44
2018-04-28T09:40:53.970Z,52.25
2018-04-28T09:41:53.990Z,51.96
2018-04-28T09:42:54.009Z,50.51
2018-04-28T09:43:54.015Z,50.32
2018-04-28T09:44:54.029Z,52.25
2018-04-28T09:45:54.039Z,52.73
2018-04-28T09:46:54.052Z,52.83
2018-04-28T09:47:54.070Z,52.06
2018-04-28T09:48:54.087Z,54.00
2018-04-28T09:49:54.095Z,52.47
2018-04-28T09:50:54.114Z,52.37
2018-04-28T09:51:54.127Z,52.27
2018-04-28T09:52:54.141Z,51.70
2018-04-28T09:53:54.153Z,50.54
2018-04-28T09:54:54.166Z,51.24
2018-04-28T09:55:54.199Z,51.79
2018-04-28T09:56:54.194Z,51.12
2018-04-28T09:57:54.211Z,50.73
2018-04-28T09:58:54.239Z,52.47
2018-04-28T09:59:54.236Z,52.85
2018-04-28T10:00:54.248Z,52.08
2018-04-28T10:01:54.263Z,52.75
2018-04-28T10:02:54.282Z,51.79
2018-04-28T10:03:54.309Z,50.45
2018-04-28T10:04:54.309Z,49.48
2018-04-28T10:05:54.353Z,50.95
2018-04-28T10:06:54.337Z,51.05
2018-04-28T10:07:54.376Z,50.66
2018-04-28T10:08:54.366Z,52.30
2018-04-28T10:09:54.379Z,51.62
2018-04-28T10:10:54.392Z,52.42
2018-04-28T10:11:54.426Z,51.75
2018-04-28T10:12:54.424Z,51.56
2018-04-28T10:13:54.443Z,50.40
2018-04-28T10:14:54.454Z,48.95
2018-04-28T10:15:54.466Z,50.32
2018-04-28T10:16:54.484Z,48.88
2018-04-28T10:17:54.500Z,47.72
2018-04-28T10:18:54.512Z,48.11
2018-04-28T10:19:54.594Z,48.01
2018-04-28T10:20:54.540Z,46.66
2018-04-28T10:21:54.555Z,47.82
2018-04-28T10:22:54.574Z,48.21
2018-04-28T10:23:54.582Z,49.73
2018-04-28T10:24:54.600Z,48.95
2018-04-28T10:25:54.620Z,48.08
2018-04-28T10:26:54.631Z,48.86
2018-04-28T10:27:54.647Z,51.46
2018-04-28T10:28:54.667Z,50.13
2018-04-28T10:29:54.687Z,49.07
2018-04-28T10:30:54.717Z,49.55
2018-04-28T10:31:54.702Z,48.59
2018-04-28T10:32:54.739Z,46.47
2018-04-28T10:33:54.740Z,46.47
2018-04-28T10:34:54.751Z,45.99
2018-04-28T10:35:54.766Z,46.47
2018-04-28T10:36:54.790Z,46.28
2018-04-28T10:37:54.808Z,46.37
2018-04-28T10:38:54.810Z,45.89
2018-04-28T10:39:54.829Z,45.34
2018-04-28T10:40:54.848Z,45.04
2018-04-28T10:41:54.856Z,44.76
2018-04-28T10:42:54.871Z,44.76
2018-04-28T10:43:54.894Z,44.27
2018-04-28T10:44:54.913Z,45.82
2018-04-28T10:45:54.916Z,45.92
2018-04-28T10:46:54.945Z,45.53
2018-04-28T10:47:54.978Z,44.85
2018-04-28T10:48:54.965Z,43.98
2018-04-28T10:49:54.983Z,45.43
2018-04-28T10:50:54.994Z,45.55
2018-04-28T10:51:55.035Z,46.71
2018-04-28T10:52:55.023Z,49.60
2018-04-28T10:53:55.210Z,47.87
2018-04-28T10:54:55.068Z,49.80
2018-04-28T10:55:55.073Z,49.60
2018-04-28T10:56:55.093Z,47.19
2018-04-28T10:57:55.111Z,47.41
2018-04-28T10:58:55.135Z,48.28
2018-04-28T10:59:55.134Z,46.83
2018-04-28T11:00:55.152Z,48.37
2018-04-28T11:01:55.186Z,48.37
2018-04-28T11:02:55.183Z,47.14
2018-04-28T11:03:55.200Z,49.75
2018-04-28T11:04:55.236Z,49.85
2018-04-28T11:05:55.228Z,48.30
2018-04-28T11:06:55.246Z,46.17
2018-04-28T11:07:55.261Z,45.21
2018-04-28T11:08:55.285Z,44.94
2018-04-28T11:09:55.297Z,44.67
2018-04-28T11:10:55.310Z,45.06
2018-04-28T11:11:56.086Z,43.90
2018-04-28T11:12:55.342Z,43.63
2018-04-28T11:13:55.358Z,42.76
2018-04-28T11:14:55.378Z,43.44
2018-04-28T11:15:55.395Z,42.59
2018-04-28T11:16:55.413Z,42.68
2018-04-28T11:17:55.430Z,40.58
2018-04-28T11:18:55.452Z,40.99
2018-04-28T11:19:55.545Z,39.94
2018-04-28T11:20:55.487Z,37.43
2018-04-28T11:21:55.500Z,36.93
2018-04-28T11:22:55.579Z,40.31
2018-04-28T11:23:55.542Z,43.21
2018-04-28T11:24:55.584Z,44.96
2018-04-28T11:25:55.579Z,42.71
2018-04-28T11:26:55.591Z,42.41
2018-04-28T11:27:55.614Z,42.03
2018-04-28T11:28:55.634Z,40.38
2018-04-28T11:29:55.654Z,40.99
2018-04-28T11:30:55.669Z,41.20
2018-04-28T11:31:55.690Z,40.61
2018-04-28T11:32:55.768Z,41.08
2018-04-28T11:33:55.743Z,39.55
2018-04-28T11:34:55.747Z,40.61
2018-04-28T11:35:55.764Z,40.25
2018-04-28T11:36:55.797Z,36.46
2018-04-28T11:37:55.807Z,38.12
2018-04-28T11:38:55.826Z,37.07
2018-04-28T11:39:55.845Z,37.35
2018-04-28T11:40:55.869Z,37.65
2018-04-28T11:41:55.885Z,37.24
2018-04-28T11:42:55.901Z,36.56
2018-04-28T11:43:55.922Z,36.74
2018-04-28T11:44:56.128Z,39.01
2018-04-28T11:45:56.005Z,39.01
2018-04-28T11:46:55.991Z,37.23
2018-04-28T11:47:56.010Z,36.76
2018-04-28T11:48:56.037Z,38.23
2018-04-28T11:49:56.049Z,37.76
2018-04-28T11:50:56.082Z,37.28
2018-04-28T11:51:56.110Z,36.63
2018-04-28T11:52:56.173Z,35.58
2018-04-28T11:53:56.141Z,32.76
2018-04-28T11:54:56.146Z,33.44
2018-04-28T11:55:56.231Z,34.22
2018-04-28T11:56:56.204Z,34.30
2018-04-28T11:57:56.217Z,33.91
2018-04-28T11:58:56.239Z,33.70
2018-04-28T11:59:56.266Z,34.97
2018-04-28T12:00:56.275Z,34.97
2018-04-28T12:01:56.300Z,37.02
2018-04-28T12:02:56.318Z,37.45
2018-04-28T12:03:56.342Z,33.96
2018-04-28T12:04:56.365Z,31.35
2018-04-28T12:05:56.387Z,33.43
2018-04-28T12:06:56.407Z,33.43
2018-04-28T12:07:56.431Z,31.38
2018-04-28T12:08:56.453Z,31.77
2018-04-28T12:09:56.483Z,31.19
2018-04-28T12:10:56.501Z,33.72
2018-04-28T12:11:56.519Z,30.91
2018-04-28T12:12:56.543Z,31.28
2018-04-28T12:13:56.563Z,32.31
2018-04-28T12:14:56.584Z,32.37
2018-04-28T12:15:56.608Z,30.93
2018-04-28T12:16:56.644Z,32.34
2018-04-28T12:17:56.651Z,33.49
2018-04-28T12:18:56.680Z,35.64
2018-04-28T12:19:56.697Z,35.47
2018-04-28T12:20:56.782Z,33.64
2018-04-28T12:21:56.741Z,33.44
2018-04-28T12:22:56.807Z,31.90
2018-04-28T12:23:56.793Z,31.63
2018-04-28T12:24:56.810Z,34.37
2018-04-28T12:25:56.840Z,34.17
2018-04-28T12:26:56.858Z,34.47
2018-04-28T12:27:56.898Z,31.46
2018-04-28T12:28:56.900Z,34.11
2018-04-28T12:29:57.011Z,36.53
2018-04-28T12:30:56.943Z,34.09
2018-04-28T12:31:56.972Z,36.24
2018-04-28T12:32:57.022Z,33.18
2018-04-28T12:33:57.041Z,33.25
2018-04-28T12:34:57.035Z,33.81
2018-04-28T12:35:57.200Z,34.63
2018-04-28T12:36:57.092Z,34.76
2018-04-28T12:37:57.100Z,32.92
2018-04-28T12:38:57.128Z,31.46
2018-04-28T12:39:57.193Z,32.73
2018-04-28T12:40:57.199Z,31.35
2018-04-28T12:41:57.191Z,31.09
2018-04-28T12:42:57.261Z,32.18
2018-04-28T12:43:57.266Z,31.43
2018-04-28T12:44:57.259Z,31.92
2018-04-28T12:45:57.283Z,31.01
2018-04-28T12:46:57.319Z,31.20
2018-04-28T12:47:57.328Z,32.97
2018-04-28T12:48:57.353Z,31.93
2018-04-28T12:49:57.400Z,32.63
2018-04-28T12:50:57.395Z,30.59
2018-04-28T12:51:57.442Z,33.17
2018-04-28T12:52:57.466Z,32.19
2018-04-28T12:53:57.475Z,30.22
2018-04-28T12:54:57.490Z,27.84